createdAt,value
2023-03-22T00:01:22.853Z,3.63
2023-03-22T00:03:51.688Z,3.40
2023-03-22T00:06:19.351Z,4.35
2023-03-22T00:08:50.789Z,4.40
2023-03-22T00:11:19.069Z,4.47
2023-03-22T00:13:47.119Z,6.03
2023-03-22T00:16:15.664Z,4.70
2023-03-22T00:18:43.802Z,5.25
2023-03-22T00:21:16.258Z,5.32
2023-03-22T00:23:44.250Z,4.65
2023-03-22T00:26:12.781Z,5.53
2023-03-22T00:28:39.810Z,5.25
2023-03-22T00:31:07.430Z,4.95
2023-03-22T00:33:34.782Z,5.72
2023-03-22T00:36:05.843Z,5.43
2023-03-22T00:38:43.726Z,6.15
2023-03-22T00:41:21.469Z,6.25
2023-03-22T00:43:49.769Z,7.45
2023-03-22T00:46:19.949Z,7.03
2023-03-22T00:48:47.424Z,6.80
2023-03-22T00:51:15.004Z,8.32
2023-03-22T00:53:43.468Z,7.47
2023-03-22T00:56:14.322Z,7.13
2023-03-22T00:58:42.263Z,8.18
2023-03-22T01:01:09.861Z,8.45
2023-03-22T01:03:38.803Z,8.38
2023-03-22T01:06:06.152Z,8.35
2023-03-22T01:08:33.473Z,7.72
2023-03-22T01:11:01.436Z,8.23
2023-03-22T01:13:29.129Z,7.68
2023-03-22T01:15:56.187Z,7.40
2023-03-22T01:18:23.366Z,7.10
2023-03-22T01:20:51.178Z,7.55
2023-03-22T01:23:18.081Z,8.27
2023-03-22T01:25:44.994Z,6.40
2023-03-22T01:28:11.942Z,7.60
2023-03-22T01:30:41.179Z,7.10
2023-03-22T01:33:09.015Z,6.70
2023-03-22T01:35:37.065Z,6.20
2023-03-22T01:38:04.414Z,6.53
2023-03-22T01:40:32.338Z,6.65
2023-03-22T01:42:59.295Z,5.90
2023-03-22T01:45:32.096Z,6.00
2023-03-22T01:48:04.656Z,5.47
2023-03-22T01:50:31.868Z,6.18
2023-03-22T01:53:01.019Z,5.90
2023-03-22T01:55:28.192Z,6.10
2023-03-22T01:57:55.524Z,5.70
2023-03-22T02:00:22.694Z,5.88
2023-03-22T02:02:52.473Z,5.78
2023-03-22T02:05:22.294Z,6.30
2023-03-22T02:07:50.714Z,5.55
2023-03-22T02:10:26.349Z,5.80
2023-03-22T02:15:56.022Z,5.32
2023-03-22T02:18:29.017Z,4.80
2023-03-22T02:21:14.868Z,6.28
2023-03-22T02:24:06.794Z,6.00
2023-03-22T02:26:55.036Z,5.82
2023-03-22T02:29:57.203Z,5.63
2023-03-22T02:32:52.839Z,6.78
2023-03-22T02:35:31.056Z,5.25
2023-03-22T02:38:30.491Z,5.82
2023-03-22T02:41:12.136Z,6.13
2023-03-22T02:43:58.475Z,5.75
2023-03-22T02:46:48.564Z,6.32
2023-03-22T02:49:21.604Z,6.90
2023-03-22T02:52:03.743Z,5.60
2023-03-22T02:54:39.935Z,4.82
2023-03-22T02:57:15.817Z,4.60
2023-03-22T02:59:44.326Z,4.50
2023-03-22T03:02:17.396Z,4.63
2023-03-22T03:04:48.583Z,4.78
2023-03-22T03:07:19.937Z,4.50
2023-03-22T03:09:47.219Z,4.07
2023-03-22T03:12:25.344Z,4.10
2023-03-22T03:14:52.416Z,4.13
2023-03-22T03:17:37.435Z,3.72
2023-03-22T03:20:24.274Z,3.72
2023-03-22T03:23:21.425Z,3.30
2023-03-22T03:26:26.596Z,3.85
2023-03-22T03:29:14.665Z,3.53
2023-03-22T03:31:56.290Z,2.85
2023-03-22T03:34:50.022Z,3.20
2023-03-22T03:37:24.063Z,2.55
2023-03-22T03:40:09.940Z,2.20
2023-03-22T03:42:47.919Z,2.28
2023-03-22T03:45:17.006Z,2.05
2023-03-22T03:47:46.797Z,2.22
2023-03-22T03:50:16.300Z,2.47
2023-03-22T03:52:43.515Z,2.10
2023-03-22T03:55:10.652Z,2.40
2023-03-22T03:57:37.541Z,2.60
2023-03-22T04:00:05.746Z,2.05
2023-03-22T04:02:32.659Z,2.13
2023-03-22T04:04:59.584Z,2.15
2023-03-22T04:07:26.519Z,2.38
2023-03-22T04:09:53.357Z,2.20
2023-03-22T04:12:20.232Z,2.00
2023-03-22T04:14:47.189Z,2.30
2023-03-22T04:17:14.128Z,2.30
2023-03-22T04:19:42.269Z,2.70
2023-03-22T04:22:14.670Z,2.20
2023-03-22T04:24:42.156Z,2.38
2023-03-22T04:27:09.692Z,2.33
2023-03-22T04:29:36.644Z,2.60
2023-03-22T04:32:04.133Z,2.30
2023-03-22T04:34:31.614Z,2.22
2023-03-22T04:37:02.389Z,2.40
2023-03-22T04:39:29.359Z,3.15
2023-03-22T04:41:56.194Z,2.35
2023-03-22T04:44:23.070Z,2.30
2023-03-22T04:46:50.075Z,2.30
2023-03-22T04:49:17.089Z,2.15
2023-03-22T04:51:44.086Z,2.22
2023-03-22T04:54:11.082Z,2.00
2023-03-22T04:56:37.963Z,2.33
2023-03-22T04:59:04.901Z,2.40
2023-03-22T05:01:31.843Z,2.42
2023-03-22T05:03:58.791Z,2.30
2023-03-22T05:06:26.412Z,2.50
2023-03-22T05:08:53.325Z,2.20
2023-03-22T05:11:20.464Z,2.38
2023-03-22T05:13:47.397Z,2.08
2023-03-22T05:16:14.352Z,2.40
2023-03-22T05:18:45.929Z,2.33
2023-03-22T05:21:22.065Z,2.25
2023-03-22T05:23:52.039Z,2.38
2023-03-22T05:26:20.538Z,2.08
2023-03-22T05:28:47.617Z,2.13
2023-03-22T05:31:15.672Z,2.30
2023-03-22T05:33:42.986Z,1.95
2023-03-22T05:36:11.718Z,2.63
2023-03-22T05:38:38.758Z,2.50
2023-03-22T05:41:06.118Z,2.50
2023-03-22T05:43:32.988Z,2.08
2023-03-22T05:45:59.945Z,1.88
2023-03-22T05:48:26.820Z,2.40
2023-03-22T05:50:53.702Z,2.40
2023-03-22T05:53:20.791Z,2.05
2023-03-22T05:55:47.639Z,1.88
2023-03-22T05:58:19.184Z,2.13
2023-03-22T06:00:50.101Z,2.45
2023-03-22T06:03:18.519Z,2.63
2023-03-22T06:05:46.687Z,2.00
2023-03-22T06:08:13.524Z,2.83
2023-03-22T06:10:40.542Z,2.22
2023-03-22T06:13:07.533Z,2.35
2023-03-22T06:15:34.466Z,2.17
2023-03-22T06:18:01.323Z,2.15
2023-03-22T06:20:28.258Z,2.30
2023-03-22T06:22:55.277Z,2.38
2023-03-22T06:25:22.216Z,2.50
2023-03-22T06:27:49.314Z,2.35
2023-03-22T06:30:16.286Z,2.40
2023-03-22T06:32:43.161Z,2.60
2023-03-22T06:35:10.396Z,2.50
2023-03-22T06:37:37.273Z,2.40
2023-03-22T06:40:04.917Z,2.28
2023-03-22T06:42:31.841Z,2.42
2023-03-22T06:44:58.751Z,2.42
2023-03-22T06:47:26.468Z,2.40
2023-03-22T06:49:54.094Z,2.65
2023-03-22T06:52:21.014Z,2.22
2023-03-22T06:54:48.000Z,1.92
2023-03-22T06:57:14.938Z,2.20
2023-03-22T06:59:41.812Z,2.45
2023-03-22T07:02:13.986Z,2.40
2023-03-22T07:04:40.978Z,2.15
2023-03-22T07:07:07.867Z,2.38
2023-03-22T07:09:34.770Z,3.05
2023-03-22T07:12:01.616Z,2.53
2023-03-22T07:14:29.073Z,2.70
2023-03-22T07:16:56.752Z,2.55
2023-03-22T07:19:23.690Z,2.63
2023-03-22T07:21:50.816Z,3.20
2023-03-22T07:24:17.758Z,2.50
2023-03-22T07:26:44.699Z,2.50
2023-03-22T07:29:11.562Z,2.67
2023-03-22T07:31:39.632Z,2.72
2023-03-22T07:34:07.261Z,2.88
2023-03-22T07:36:34.151Z,2.78
2023-03-22T07:39:02.109Z,2.55
2023-03-22T07:41:30.297Z,2.97
2023-03-22T07:44:11.201Z,2.58
2023-03-22T07:46:42.171Z,2.70
2023-03-22T07:49:09.055Z,2.45
2023-03-22T07:51:35.922Z,2.33
2023-03-22T07:54:03.122Z,2.70
2023-03-22T07:56:30.525Z,2.50
2023-03-22T07:58:57.421Z,2.45
2023-03-22T08:01:24.796Z,2.72
2023-03-22T08:03:51.708Z,2.08
2023-03-22T08:06:21.579Z,2.30
2023-03-22T08:08:48.642Z,2.65
2023-03-22T08:11:15.625Z,2.63
2023-03-22T08:13:42.585Z,2.58
2023-03-22T08:16:09.505Z,3.25
2023-03-22T08:18:36.521Z,2.92
2023-03-22T08:21:03.634Z,2.63
2023-03-22T08:23:40.987Z,2.65
2023-03-22T08:26:09.691Z,2.45
2023-03-22T08:28:36.900Z,2.75
2023-03-22T08:31:13.192Z,3.10
2023-03-22T08:33:40.925Z,2.67
2023-03-22T08:36:10.734Z,2.88
2023-03-22T08:38:37.672Z,2.78
2023-03-22T08:41:04.800Z,2.58
2023-03-22T08:43:31.726Z,3.15
2023-03-22T08:45:58.960Z,2.55
2023-03-22T08:48:29.200Z,2.92
2023-03-22T08:50:56.698Z,2.55
2023-03-22T08:53:24.131Z,2.70
2023-03-22T08:55:51.023Z,2.47
2023-03-22T08:58:20.395Z,2.53
2023-03-22T09:00:49.671Z,2.90
2023-03-22T09:03:17.404Z,2.58
2023-03-22T09:05:44.466Z,2.70
2023-03-22T09:08:18.400Z,2.63
2023-03-22T09:10:52.050Z,2.22
2023-03-22T09:13:19.756Z,2.10
2023-03-22T09:15:47.432Z,2.30
2023-03-22T09:18:14.824Z,2.65
2023-03-22T09:20:42.964Z,2.47
2023-03-22T09:23:10.184Z,2.55
2023-03-22T09:25:37.114Z,2.30
2023-03-22T09:28:04.600Z,2.72
2023-03-22T09:30:31.532Z,3.53
2023-03-22T09:32:58.417Z,3.03
2023-03-22T09:35:25.362Z,4.00
2023-03-22T09:37:54.573Z,3.75
2023-03-22T09:40:25.793Z,3.72
2023-03-22T09:42:57.737Z,3.22
2023-03-22T09:45:38.357Z,2.58
2023-03-22T09:48:13.447Z,2.50
2023-03-22T09:50:46.394Z,2.80
2023-03-22T09:53:15.642Z,2.95
2023-03-22T09:56:12.849Z,4.85
2023-03-22T09:59:08.488Z,3.03
2023-03-22T10:02:00.542Z,3.05
2023-03-22T10:04:45.352Z,2.72
2023-03-22T10:07:23.210Z,2.72
2023-03-22T10:10:10.181Z,2.72
2023-03-22T10:12:46.485Z,2.38
2023-03-22T10:15:17.170Z,2.92
2023-03-22T10:17:49.035Z,2.47
2023-03-22T10:20:58.591Z,2.33
2023-03-22T10:23:32.794Z,3.03
2023-03-22T10:26:01.964Z,2.47
2023-03-22T10:28:38.621Z,2.53
2023-03-22T10:31:06.668Z,2.67
2023-03-22T10:33:50.410Z,2.25
2023-03-22T10:36:20.896Z,2.53
2023-03-22T10:38:52.566Z,2.33
2023-03-22T10:41:22.643Z,3.88
2023-03-22T10:43:54.032Z,2.97
2023-03-22T10:46:24.664Z,2.47
2023-03-22T10:48:57.231Z,2.20
2023-03-22T10:51:37.011Z,2.57
2023-03-22T10:54:05.702Z,2.75
2023-03-22T10:56:32.692Z,2.30
2023-03-22T10:58:59.580Z,2.60
2023-03-22T11:01:41.589Z,1.95
2023-03-22T11:04:12.414Z,1.85
2023-03-22T11:06:48.199Z,2.03
2023-03-22T11:09:20.393Z,1.90
2023-03-22T11:11:56.094Z,2.00
2023-03-22T11:14:36.096Z,2.53
2023-03-22T11:17:14.960Z,2.15
2023-03-22T11:19:53.810Z,2.53
2023-03-22T11:22:40.322Z,2.05
2023-03-22T11:27:56.943Z,1.77
2023-03-22T11:30:25.793Z,2.70
2023-03-22T11:33:12.128Z,2.65
2023-03-22T11:38:07.617Z,2.25
2023-03-22T11:40:36.728Z,2.13
2023-03-22T11:43:19.723Z,1.80
2023-03-22T11:45:50.341Z,1.92
2023-03-22T11:48:24.245Z,1.95
2023-03-22T11:50:54.424Z,1.90
2023-03-22T11:53:27.602Z,1.73
2023-03-22T11:55:57.083Z,1.98
2023-03-22T11:58:55.547Z,1.83
2023-03-22T12:01:57.955Z,2.00
2023-03-22T12:04:28.270Z,1.63
2023-03-22T12:07:05.053Z,2.05
2023-03-22T12:09:50.571Z,2.50
2023-03-22T12:12:23.156Z,1.33
2023-03-22T12:14:56.407Z,1.70
2023-03-22T12:17:29.332Z,1.75
2023-03-22T12:20:27.945Z,1.88
2023-03-22T12:22:55.648Z,3.00
2023-03-22T12:25:45.927Z,2.10
2023-03-22T12:28:18.316Z,1.70
2023-03-22T12:30:51.717Z,1.85
2023-03-22T12:33:30.980Z,1.40
2023-03-22T12:36:07.947Z,2.03
2023-03-22T12:38:52.863Z,1.52
2023-03-22T12:41:26.970Z,1.60
2023-03-22T12:44:01.605Z,1.30
2023-03-22T12:46:57.418Z,1.70
2023-03-22T12:50:01.347Z,2.72
2023-03-22T12:52:45.508Z,1.95
2023-03-22T12:55:30.849Z,1.42
2023-03-22T12:57:58.552Z,1.60
2023-03-22T13:00:56.301Z,2.30
2023-03-22T13:03:47.618Z,1.33
2023-03-22T13:06:53.711Z,1.15
2023-03-22T13:09:35.127Z,1.10
2023-03-22T13:12:17.507Z,1.30
2023-03-22T13:14:58.064Z,1.40
2023-03-22T13:17:25.416Z,1.40
2023-03-22T13:20:11.538Z,1.83
2023-03-22T13:22:38.681Z,2.72
2023-03-22T13:25:14.618Z,2.47
2023-03-22T13:28:04.308Z,2.63
2023-03-22T13:30:35.565Z,2.80
2023-03-22T13:33:11.267Z,3.58
2023-03-22T13:35:46.009Z,3.80
2023-03-22T13:38:25.996Z,3.00
2023-03-22T13:40:59.813Z,3.67
2023-03-22T13:43:52.293Z,3.00
2023-03-22T13:46:22.188Z,2.67
2023-03-22T13:48:52.686Z,2.97
2023-03-22T13:51:31.210Z,2.78
2023-03-22T13:53:58.135Z,2.92
2023-03-22T13:56:44.924Z,2.63
2023-03-22T13:59:12.751Z,1.95
2023-03-22T14:01:47.847Z,2.05
2023-03-22T14:04:22.734Z,1.90
2023-03-22T14:06:52.894Z,1.80
2023-03-22T14:09:30.760Z,1.77
2023-03-22T14:12:22.407Z,2.28
2023-03-22T14:14:55.774Z,1.60
2023-03-22T14:17:35.745Z,1.55
2023-03-22T14:20:06.656Z,1.73
